Ashburn, Missouri
Current Conditions -  °F | °C
As of 2:15 PM on Sunday 21 Dec 2014 (Local Time) from KHAE Reporting Station
Overcast Overcast  
Wind Chill: 41°   Ceiling: 4200
Heat Index: 46°   Visibility: 10mi
Dew Point: 32°   Wind: 12mph
Humidity: 57%   Direction: 160°SSE
Pressure: 29.97"   Gusts: 18mph
Location:  39.54°N, 91.17°W
Report Text: KHAE 212015Z AUTO 16010G16KT 10SM SCT027 SCT031 OVC042 08/00 A2997 RMK AO2
Loading
Personal Weather Stations






























Interactive Weather Map New forecast layout! Learn more

10-Day Weather Forecast

Advertisements
Track Severe Weather on mobile